createdAt,value
2022-07-30T00:01:45.394Z,53.50
2022-07-30T00:06:48.918Z,53.50
2022-07-30T00:11:52.639Z,53.80
2022-07-30T00:16:56.361Z,53.50
2022-07-30T00:22:00.195Z,53.40
2022-07-30T00:27:04.249Z,53.40
2022-07-30T00:32:08.404Z,53.30
2022-07-30T00:37:12.390Z,53.30
2022-07-30T00:42:16.831Z,53.30
2022-07-30T00:47:39.705Z,53.40
2022-07-30T00:52:44.018Z,53.30
2022-07-30T00:57:47.555Z,53.40
2022-07-30T01:02:51.284Z,53.70
2022-07-30T01:07:54.905Z,53.20
2022-07-30T01:12:59.562Z,53.20
2022-07-30T01:18:13.046Z,53.20
2022-07-30T01:23:51.105Z,53.20
2022-07-30T01:28:59.478Z,53.20
2022-07-30T01:34:04.799Z,53.20
2022-07-30T01:39:20.757Z,53.10
2022-07-30T01:44:28.185Z,53.20
2022-07-30T01:49:36.237Z,53.50
2022-07-30T01:54:45.279Z,53.10
2022-07-30T01:59:58.050Z,53.10
2022-07-30T02:05:03.174Z,53.10
2022-07-30T02:10:46.620Z,53.50
2022-07-30T02:16:25.383Z,53.00
2022-07-30T02:21:37.162Z,53.00
2022-07-30T02:26:43.421Z,53.10
2022-07-30T02:31:53.806Z,53.10
2022-07-30T02:36:59.654Z,52.90
2022-07-30T02:42:06.696Z,53.10
2022-07-30T02:47:12.869Z,53.10
2022-07-30T02:52:19.227Z,52.90
2022-07-30T02:57:25.309Z,52.90
2022-07-30T03:02:31.877Z,53.30
2022-07-30T03:07:37.785Z,52.90
2022-07-30T03:12:47.599Z,53.20
2022-07-30T03:17:55.627Z,52.90
2022-07-30T03:23:04.940Z,52.90
2022-07-30T03:28:12.264Z,52.90
2022-07-30T03:33:16.571Z,52.90
2022-07-30T03:38:23.267Z,53.00
2022-07-30T03:43:33.507Z,52.90
2022-07-30T03:48:39.235Z,53.50
2022-07-30T03:53:43.657Z,53.30
2022-07-30T03:59:17.053Z,52.90
2022-07-30T04:04:21.087Z,53.20
2022-07-30T04:09:25.323Z,52.90
2022-07-30T04:14:49.316Z,52.90
2022-07-30T04:20:02.311Z,52.90
2022-07-30T04:25:07.371Z,53.20
2022-07-30T04:30:11.868Z,53.50
2022-07-30T04:35:49.645Z,52.90
2022-07-30T04:40:52.992Z,52.90
2022-07-30T04:46:01.531Z,52.90
2022-07-30T04:51:33.061Z,53.20
2022-07-30T04:56:38.524Z,52.90
2022-07-30T05:01:43.818Z,52.90
2022-07-30T05:06:48.023Z,52.40
2022-07-30T05:12:00.661Z,52.80
2022-07-30T05:17:07.244Z,52.80
2022-07-30T05:22:11.375Z,52.80
2022-07-30T05:27:22.061Z,52.80
2022-07-30T05:32:33.798Z,52.80
2022-07-30T05:37:43.434Z,52.80
2022-07-30T05:42:47.053Z,52.80
2022-07-30T05:47:50.753Z,52.80
2022-07-30T05:52:56.344Z,52.80
2022-07-30T05:58:19.823Z,53.10
2022-07-30T06:03:23.546Z,52.90
2022-07-30T06:08:45.797Z,52.80
2022-07-30T06:13:59.312Z,52.80
2022-07-30T06:19:19.679Z,52.80
2022-07-30T06:24:29.173Z,52.80
2022-07-30T06:30:08.244Z,52.80
2022-07-30T06:35:12.064Z,52.80
2022-07-30T06:40:15.688Z,52.80
2022-07-30T06:46:04.635Z,52.70
2022-07-30T06:51:25.990Z,52.70
2022-07-30T06:56:31.937Z,52.60
2022-07-30T07:01:41.945Z,52.80
2022-07-30T07:06:49.017Z,52.60
2022-07-30T07:12:15.925Z,52.80
2022-07-30T07:17:24.473Z,52.70
2022-07-30T07:22:54.228Z,52.60
2022-07-30T07:28:11.546Z,52.60
2022-07-30T07:33:19.484Z,52.70
2022-07-30T07:38:23.824Z,52.60
2022-07-30T07:43:27.858Z,52.60
2022-07-30T07:48:36.292Z,52.60
2022-07-30T07:54:11.889Z,52.60
2022-07-30T07:59:19.249Z,52.60
2022-07-30T08:04:22.771Z,52.70
2022-07-30T08:09:46.656Z,52.60
2022-07-30T08:15:24.011Z,52.60
2022-07-30T08:20:52.916Z,52.60
2022-07-30T08:25:59.854Z,52.60
2022-07-30T08:31:04.901Z,52.60
2022-07-30T08:36:10.118Z,52.60
2022-07-30T08:41:21.656Z,52.70
2022-07-30T08:46:28.152Z,52.60
2022-07-30T08:51:37.199Z,53.30
2022-07-30T08:57:00.070Z,52.70
2022-07-30T09:02:10.374Z,52.70
2022-07-30T09:07:24.807Z,52.60
2022-07-30T09:12:39.177Z,52.60
2022-07-30T09:18:04.289Z,52.70
2022-07-30T09:23:10.370Z,52.70
2022-07-30T09:28:34.360Z,52.70
2022-07-30T09:33:50.260Z,52.80
2022-07-30T09:39:39.214Z,52.90
2022-07-30T09:45:10.676Z,53.10
2022-07-30T09:50:30.159Z,52.80
2022-07-30T09:55:41.351Z,52.80
2022-07-30T10:00:47.421Z,52.90
2022-07-30T10:06:03.769Z,52.90
2022-07-30T10:11:22.699Z,53.30
2022-07-30T10:16:35.654Z,53.00
2022-07-30T10:21:40.303Z,53.10
2022-07-30T10:26:54.680Z,53.10
2022-07-30T10:32:16.607Z,53.10
2022-07-30T10:37:22.777Z,53.10
2022-07-30T10:42:44.422Z,53.00
2022-07-30T10:47:49.946Z,53.00
2022-07-30T10:52:55.978Z,53.00
2022-07-30T10:58:05.921Z,53.20
2022-07-30T11:03:38.786Z,53.20
2022-07-30T11:08:48.233Z,53.30
2022-07-30T11:14:01.321Z,53.40
2022-07-30T11:19:55.639Z,53.40
2022-07-30T11:24:46.325Z,53.50
2022-07-30T11:29:50.440Z,53.60
2022-07-30T11:35:23.280Z,53.60
2022-07-30T11:40:29.422Z,53.80
2022-07-30T11:45:33.669Z,53.80
2022-07-30T11:50:37.701Z,53.90
2022-07-30T11:56:02.917Z,54.20
2022-07-30T12:01:12.474Z,53.80
2022-07-30T12:06:24.818Z,53.80
2022-07-30T12:11:35.889Z,54.00
2022-07-30T12:16:41.560Z,54.00
2022-07-30T12:21:48.332Z,54.10
2022-07-30T12:27:09.171Z,54.20
2022-07-30T12:32:13.100Z,54.20
2022-07-30T12:37:16.726Z,54.20
2022-07-30T12:42:21.025Z,54.30
2022-07-30T12:47:26.554Z,54.40
2022-07-30T12:52:35.441Z,54.40
2022-07-30T12:58:02.950Z,54.30
2022-07-30T13:03:39.533Z,54.40
2022-07-30T13:08:57.365Z,54.30
2022-07-30T13:14:00.884Z,54.50
2022-07-30T13:19:05.385Z,54.50
2022-07-30T13:24:09.867Z,55.20
2022-07-30T13:29:21.599Z,54.80
2022-07-30T13:34:25.812Z,54.80
2022-07-30T13:39:29.440Z,54.70
2022-07-30T13:44:32.958Z,55.00
2022-07-30T13:49:44.360Z,55.10
2022-07-30T13:55:15.925Z,54.80
2022-07-30T14:00:24.845Z,54.80
2022-07-30T14:05:28.910Z,55.20
2022-07-30T14:10:33.140Z,55.40
2022-07-30T14:15:39.046Z,55.00
2022-07-30T14:20:48.911Z,55.10
2022-07-30T14:25:57.715Z,55.00
2022-07-30T14:31:08.895Z,55.60
2022-07-30T14:36:12.641Z,55.10
2022-07-30T14:41:16.118Z,55.20
2022-07-30T14:46:20.292Z,55.20
2022-07-30T14:51:26.349Z,55.80
2022-07-30T14:56:35.109Z,55.50
2022-07-30T15:01:39.488Z,55.20
2022-07-30T15:06:43.664Z,55.20
2022-07-30T15:12:24.140Z,55.50
2022-07-30T15:17:11.299Z,55.30
2022-07-30T15:22:15.329Z,55.30
2022-07-30T15:27:19.302Z,55.60
2022-07-30T15:32:23.001Z,55.30
2022-07-30T15:37:33.771Z,55.30
2022-07-30T15:42:37.597Z,55.30
2022-07-30T15:47:41.184Z,55.30
2022-07-30T15:52:45.459Z,55.30
2022-07-30T15:57:48.980Z,55.30
2022-07-30T16:02:52.601Z,55.30
